Time;durP1;ratioP1;P1;durP2;ratioP2;P2;SDS_P1;SDS_P2;PMS_P1;PMS_P2;Temp;Humidity;BMP_temperature;BMP_pressure;BME280_temperature;BME280_humidity;BME280_pressure;Samples;Min_cycle;Max_cycle;Signal;HPM_P1;HPM_P2
2022/06/06 00:01:11;;;;;;;1.65;0.70;;;18.80;80.50;;;;;;5080727;28;20044;-67
2022/06/06 00:03:38;;;;;;;2.05;0.93;;;18.80;80.50;;;;;;5089914;28;20051;-66
2022/06/06 00:06:10;;;;;;;2.42;0.80;;;18.80;80.60;;;;;;5090624;28;20072;-67
2022/06/06 00:08:40;;;;;;;3.92;0.88;;;18.80;80.60;;;;;;5098947;28;20096;-68
2022/06/06 00:11:09;;;;;;;1.27;0.88;;;18.80;80.60;;;;;;5093703;28;20047;-67
2022/06/06 00:13:36;;;;;;;2.58;1.23;;;18.70;80.70;;;;;;5098817;28;20047;-68
2022/06/06 00:16:03;;;;;;;1.38;0.70;;;18.70;80.80;;;;;;5088979;28;20518;-66
2022/06/06 00:18:31;;;;;;;3.25;0.90;;;18.70;80.80;;;;;;5091608;28;20364;-67
2022/06/06 00:20:58;;;;;;;2.83;0.90;;;18.70;80.80;;;;;;5088289;28;20032;-68
2022/06/06 00:23:25;;;;;;;3.00;0.95;;;18.70;80.90;;;;;;5093213;28;20513;-68
2022/06/06 00:25:53;;;;;;;1.83;0.90;;;18.60;81.00;;;;;;5087355;28;20045;-67
2022/06/06 00:28:22;;;;;;;1.25;0.80;;;18.70;81.00;;;;;;5087863;28;20083;-69
2022/06/06 00:30:49;;;;;;;1.58;0.88;;;18.70;81.10;;;;;;5089322;28;20040;-67
2022/06/06 00:36:01;;;;;;;5.15;0.93;;;18.60;81.10;;;;;;5094746;28;20500;-67
2022/06/06 00:38:31;;;;;;;3.80;0.98;;;18.60;81.10;;;;;;5094970;28;20119;-67
2022/06/06 00:40:59;;;;;;;1.80;0.90;;;18.70;81.20;;;;;;5095259;28;20146;-68
2022/06/06 00:43:27;;;;;;;2.03;0.82;;;18.70;81.20;;;;;;5092058;28;20055;-66
2022/06/06 00:45:56;;;;;;;3.20;1.08;;;18.70;81.20;;;;;;5087218;28;20135;-67
2022/06/06 00:48:27;;;;;;;2.47;1.15;;;18.70;81.20;;;;;;5090422;28;20062;-68
2022/06/06 00:51:00;;;;;;;3.35;1.05;;;18.70;81.30;;;;;;5095030;28;20060;-68
2022/06/06 00:53:34;;;;;;;1.98;0.60;;;18.70;81.20;;;;;;5095183;28;20522;-67
2022/06/06 00:56:07;;;;;;;1.50;0.80;;;18.70;81.20;;;;;;5084284;28;20499;-68
2022/06/06 00:58:37;;;;;;;2.03;1.00;;;18.70;81.20;;;;;;5094230;28;20075;-67
2022/06/06 01:01:05;;;;;;;1.17;0.90;;;18.70;81.30;;;;;;5087001;28;21026;-67
2022/06/06 01:03:32;;;;;;;3.05;1.00;;;18.60;81.40;;;;;;5094503;28;20142;-67
2022/06/06 01:06:01;;;;;;;1.50;0.80;;;18.70;81.30;;;;;;5100210;28;20051;-66
2022/06/06 01:08:29;;;;;;;2.78;1.42;;;18.60;81.30;;;;;;5094349;28;20067;-68
2022/06/06 01:10:56;;;;;;;3.63;1.20;;;18.60;81.30;;;;;;5092495;28;20137;-67
2022/06/06 01:13:24;;;;;;;2.10;0.90;;;18.60;81.40;;;;;;5098546;28;20161;-68
2022/06/06 01:16:05;;;;;;;2.17;0.93;;;18.60;81.40;;;;;;5090897;28;20035;-68
2022/06/06 01:18:44;;;;;;;2.88;0.80;;;18.60;81.40;;;;;;5090885;28;20048;-68
2022/06/06 01:21:41;;;;;;;1.98;1.05;;;18.60;81.40;;;;;;5088627;28;20036;-68
2022/06/06 01:24:29;;;;;;;1.67;1.00;;;18.60;81.40;;;;;;5085774;28;20048;-67
2022/06/06 01:27:19;;;;;;;1.25;0.80;;;18.50;81.40;;;;;;5068108;28;20745;-68
2022/06/06 01:29:52;;;;;;;1.88;1.05;;;18.50;81.50;;;;;;5097034;28;20645;-69
2022/06/06 01:32:23;;;;;;;2.78;0.82;;;18.40;81.60;;;;;;5098579;28;20044;-67
2022/06/06 01:34:53;;;;;;;2.53;1.08;;;18.40;81.70;;;;;;5098624;28;20075;-68
2022/06/06 01:37:26;;;;;;;3.20;1.63;;;18.40;81.80;;;;;;5099469;28;20403;-68
2022/06/06 01:39:55;;;;;;;1.77;0.90;;;18.40;81.80;;;;;;5094726;28;20135;-66
2022/06/06 01:42:26;;;;;;;;;;;18.40;81.80;;;;;;5098318;28;20399;-68
2022/06/06 01:45:00;;;;;;;1.77;1.10;;;18.30;81.80;;;;;;5097942;28;20423;-68
2022/06/06 01:47:31;;;;;;;2.75;0.95;;;18.30;81.90;;;;;;5100954;28;20043;-67
2022/06/06 01:50:00;;;;;;;3.03;0.95;;;18.30;82.10;;;;;;5101211;28;20059;-68
2022/06/06 01:52:27;;;;;;;1.90;1.13;;;18.30;82.20;;;;;;5100740;28;20126;-68
2022/06/06 01:54:55;;;;;;;1.75;1.02;;;18.30;82.30;;;;;;5100443;28;20048;-67
2022/06/06 01:57:23;;;;;;;3.65;1.02;;;18.20;82.40;;;;;;5101325;28;20048;-68
2022/06/06 01:59:52;;;;;;;2.25;1.13;;;18.20;82.40;;;;;;5100696;28;20044;-67
2022/06/06 02:02:20;;;;;;;2.58;1.13;;;18.20;82.40;;;;;;5096019;28;20044;-67
2022/06/06 02:04:48;;;;;;;2.22;1.02;;;18.20;82.40;;;;;;5095228;28;20036;-68
2022/06/06 02:07:15;;;;;;;2.53;1.10;;;18.20;82.40;;;;;;5096344;28;20054;-69
2022/06/06 02:09:42;;;;;;;1.38;0.95;;;18.20;82.50;;;;;;5095173;28;20047;-67
2022/06/06 02:12:10;;;;;;;6.68;1.40;;;18.20;82.50;;;;;;5093567;28;20046;-67
2022/06/06 02:14:38;;;;;;;3.90;1.23;;;18.20;82.50;;;;;;5086788;28;20054;-68
2022/06/06 02:17:06;;;;;;;2.25;1.08;;;18.20;82.60;;;;;;5088493;28;20048;-68
2022/06/06 02:19:35;;;;;;;4.93;1.52;;;18.20;82.60;;;;;;5087126;28;20066;-66
2022/06/06 02:22:03;;;;;;;3.53;1.20;;;18.20;82.70;;;;;;5091345;28;20032;-67
2022/06/06 02:24:30;;;;;;;3.40;1.20;;;18.20;82.70;;;;;;5091505;28;20028;-68
2022/06/06 02:26:57;;;;;;;2.47;1.30;;;18.20;82.60;;;;;;5094214;28;20513;-68
2022/06/06 02:29:24;;;;;;;2.22;1.20;;;18.20;82.60;;;;;;5090188;28;20055;-66
2022/06/06 02:31:51;;;;;;;3.83;1.58;;;18.20;82.70;;;;;;5086231;28;20043;-67
2022/06/06 02:34:18;;;;;;;3.30;1.52;;;18.20;82.70;;;;;;5090460;28;20084;-68
2022/06/06 02:36:46;;;;;;;2.42;1.33;;;18.20;82.70;;;;;;5087230;28;20043;-67
2022/06/06 02:39:14;;;;;;;2.65;1.33;;;18.20;82.80;;;;;;5087883;28;20039;-66
2022/06/06 02:41:41;;;;;;;4.50;1.30;;;18.20;82.80;;;;;;5084533;28;20495;-66
2022/06/06 02:44:09;;;;;;;2.92;1.30;;;18.20;82.90;;;;;;5087120;28;20527;-68
2022/06/06 02:46:36;;;;;;;3.63;1.38;;;18.20;82.80;;;;;;5082654;28;20052;-68
2022/06/06 02:49:03;;;;;;;4.68;1.50;;;18.20;82.90;;;;;;5087201;28;20054;-67
2022/06/06 02:51:30;;;;;;;4.20;1.63;;;18.10;83.00;;;;;;5085759;28;20039;-67
2022/06/06 02:54:01;;;;;;;6.57;1.80;;;18.10;83.00;;;;;;5081882;28;20503;-67
2022/06/06 02:56:28;;;;;;;3.85;1.83;;;18.10;83.00;;;;;;5094669;28;20336;-68
2022/06/06 02:58:56;;;;;;;4.05;1.60;;;18.10;83.00;;;;;;5089165;28;20051;-68
2022/06/06 03:01:23;;;;;;;4.72;1.38;;;18.10;83.00;;;;;;5085216;28;20050;-68
2022/06/06 03:03:52;;;;;;;1.98;1.33;;;18.10;83.10;;;;;;5084744;28;20039;-68
2022/06/06 03:06:31;;;;;;;3.05;1.90;;;18.10;83.10;;;;;;5086852;28;20056;-66
2022/06/06 03:09:12;;;;;;;8.23;2.00;;;18.10;83.10;;;;;;5069704;28;20157;-69
2022/06/06 03:12:00;;;;;;;4.60;2.00;;;18.10;83.30;;;;;;5085061;28;20388;-68
2022/06/06 03:14:46;;;;;;;4.95;1.92;;;18.10;83.30;;;;;;5088480;28;20048;-68
2022/06/06 03:23:28;;;;;;;2.58;1.50;;;18.10;83.30;;;;;;5045971;28;20107;-68
2022/06/06 03:26:06;;;;;;;4.65;2.00;;;18.10;83.30;;;;;;5042864;28;20049;-67
2022/06/06 03:28:40;;;;;;;4.63;2.40;;;18.10;83.30;;;;;;5071500;28;20056;-68
2022/06/06 03:31:17;;;;;;;4.85;2.10;;;18.20;83.20;;;;;;5088323;28;20064;-69
2022/06/06 03:33:57;;;;;;;3.90;2.33;;;18.10;83.20;;;;;;5088878;28;20130;-67
2022/06/06 03:36:31;;;;;;;3.42;1.77;;;18.20;83.10;;;;;;5089230;28;20120;-67
2022/06/06 03:39:07;;;;;;;5.38;2.53;;;18.20;83.00;;;;;;5087175;28;20091;-67
2022/06/06 03:41:41;;;;;;;4.25;2.25;;;18.20;83.00;;;;;;5088987;28;20052;-67
2022/06/06 03:44:17;;;;;;;5.43;2.70;;;18.20;83.00;;;;;;5069936;28;20575;-67
2022/06/06 03:46:54;;;;;;;5.63;2.58;;;18.20;83.00;;;;;;5068821;28;20515;-66
2022/06/06 03:49:31;;;;;;;5.20;2.70;;;18.30;82.90;;;;;;5067271;28;21295;-68
2022/06/06 03:52:05;;;;;;;4.40;2.40;;;18.30;82.90;;;;;;5073512;28;20496;-67
2022/06/06 03:54:42;;;;;;;5.15;2.70;;;18.30;82.90;;;;;;5077517;28;20040;-67
2022/06/06 03:57:16;;;;;;;6.60;2.53;;;18.30;82.90;;;;;;5075663;28;20043;-68
2022/06/06 03:59:45;;;;;;;4.90;2.38;;;18.30;82.90;;;;;;5078509;28;20496;-68
2022/06/06 04:02:18;;;;;;;5.43;2.13;;;18.30;83.00;;;;;;5071877;28;20101;-66
2022/06/06 04:04:46;;;;;;;4.47;2.38;;;18.30;83.00;;;;;;5074656;28;20123;-67
2022/06/06 04:07:13;;;;;;;4.45;2.50;;;18.30;83.10;;;;;;5075766;28;20051;-68
2022/06/06 04:09:40;;;;;;;4.55;2.55;;;18.30;83.00;;;;;;5077921;28;20074;-67
2022/06/06 04:12:20;;;;;;;5.72;2.63;;;18.30;83.00;;;;;;5076535;28;20037;-67
2022/06/06 04:14:55;;;;;;;4.97;2.65;;;18.30;82.90;;;;;;5073341;28;20135;-67
2022/06/06 04:17:30;;;;;;;5.50;2.70;;;18.30;82.90;;;;;;5070546;28;20408;-67
2022/06/06 04:20:10;;;;;;;5.25;2.78;;;18.20;83.00;;;;;;5071910;28;20067;-69
2022/06/06 04:22:44;;;;;;;;;;;18.20;83.00;;;;;;5078368;28;20060;-67
2022/06/06 04:25:24;;;;;;;5.85;2.80;;;18.20;82.90;;;;;;5076974;28;19920;-66
2022/06/06 04:27:58;;;;;;;5.22;2.47;;;18.30;82.80;;;;;;5075469;28;20056;-68
2022/06/06 04:30:34;;;;;;;4.68;2.47;;;18.30;82.80;;;;;;5075204;28;20042;-68
2022/06/06 04:33:14;;;;;;;4.72;2.45;;;18.30;82.60;;;;;;5073807;28;20503;-68
2022/06/06 04:35:52;;;;;;;5.32;2.55;;;18.30;82.70;;;;;;5074109;28;20234;-67
2022/06/06 04:38:29;;;;;;;4.00;2.28;;;18.30;82.70;;;;;;5069311;28;20109;-69
2022/06/06 04:41:03;;;;;;;5.60;2.88;;;18.30;82.60;;;;;;5067278;28;20147;-68
2022/06/06 04:43:39;;;;;;;7.03;2.95;;;18.30;82.60;;;;;;5067300;28;20041;-68
2022/06/06 04:46:12;;;;;;;7.15;2.60;;;18.30;82.60;;;;;;5071216;28;20698;-67
2022/06/06 04:48:40;;;;;;;6.05;3.25;;;18.30;82.50;;;;;;5070023;28;20049;-67
2022/06/06 04:51:08;;;;;;;7.05;2.80;;;18.30;82.50;;;;;;5068152;28;20131;-67
2022/06/06 04:53:42;;;;;;;6.90;2.75;;;18.30;82.60;;;;;;5067991;28;20035;-68
2022/06/06 04:56:09;;;;;;;6.72;2.80;;;18.30;82.60;;;;;;5079140;28;20040;-68
2022/06/06 04:58:40;;;;;;;8.82;2.83;;;18.30;82.60;;;;;;5078923;28;20082;-68
2022/06/06 05:01:08;;;;;;;5.55;2.85;;;18.30;82.60;;;;;;5070215;28;20039;-68
2022/06/06 05:03:35;;;;;;;7.75;2.78;;;18.30;82.70;;;;;;5078121;28;20094;-65
2022/06/06 05:06:19;;;;;;;6.32;2.85;;;18.40;82.80;;;;;;5079846;28;20056;-68
2022/06/06 05:09:06;;;;;;;5.63;2.70;;;18.40;82.80;;;;;;5074055;28;20526;-66
2022/06/06 05:11:54;;;;;;;7.25;3.20;;;18.40;82.80;;;;;;5081070;28;20043;-67
2022/06/06 05:14:45;;;;;;;6.25;2.63;;;18.40;82.80;;;;;;5081608;28;20040;-67
2022/06/06 05:17:40;;;;;;;5.70;2.63;;;18.40;82.80;;;;;;5080063;28;20123;-67
2022/06/06 05:20:18;;;;;;;9.55;2.50;;;18.40;82.80;;;;;;5081951;28;20451;-67
2022/06/06 05:23:12;;;;;;;5.10;2.88;;;18.40;82.80;;;;;;5083962;28;20135;-67
2022/06/06 05:25:51;;;;;;;4.65;2.70;;;18.50;82.80;;;;;;5080994;28;20044;-66
2022/06/06 05:28:38;;;;;;;6.35;2.58;;;18.50;82.90;;;;;;5082051;28;20044;-68
2022/06/06 05:31:15;;;;;;;6.05;2.45;;;18.50;82.90;;;;;;5082139;28;20056;-67
2022/06/06 05:33:47;;;;;;;5.47;3.03;;;18.60;82.90;;;;;;5078494;28;20041;-67
2022/06/06 05:36:31;;;;;;;5.30;2.50;;;18.60;82.80;;;;;;5080655;28;20056;-67
2022/06/06 05:39:17;;;;;;;5.85;2.88;;;18.60;82.80;;;;;;5079152;28;20047;-68
2022/06/06 05:42:13;;;;;;;5.05;3.03;;;18.60;82.60;;;;;;5073592;28;20040;-67
2022/06/06 05:44:48;;;;;;;6.60;2.47;;;18.70;82.50;;;;;;5089522;28;20056;-68
2022/06/06 05:47:31;;;;;;;4.75;2.30;;;18.70;82.30;;;;;;5100264;28;20450;-66
2022/06/06 05:50:16;;;;;;;7.75;3.08;;;18.70;82.20;;;;;;5095489;28;20210;-67
2022/06/06 05:52:59;;;;;;;5.22;2.53;;;18.70;82.20;;;;;;5100391;28;20028;-67
2022/06/06 05:55:38;;;;;;;4.60;2.85;;;18.70;82.10;;;;;;5102553;28;20121;-68
2022/06/06 05:58:38;;;;;;;6.55;2.65;;;18.70;82.10;;;;;;5098610;28;20414;-67
2022/06/06 06:01:21;;;;;;;5.30;2.63;;;18.70;82.10;;;;;;5087771;28;20515;-68
2022/06/06 06:04:11;;;;;;;5.05;2.35;;;18.80;82.10;;;;;;5101018;28;20036;-67
2022/06/06 06:06:48;;;;;;;5.10;2.85;;;18.90;81.80;;;;;;5094903;28;20043;-66
2022/06/06 06:09:25;;;;;;;5.03;2.53;;;18.90;81.80;;;;;;5098598;28;20040;-67
2022/06/06 06:12:09;;;;;;;8.57;2.90;;;19.00;81.70;;;;;;5096883;28;20095;-68
2022/06/06 06:14:47;;;;;;;5.75;2.88;;;19.00;81.50;;;;;;5091870;28;20468;-68
2022/06/06 06:17:18;;;;;;;6.35;2.78;;;19.00;81.50;;;;;;5098111;28;20043;-68
2022/06/06 06:19:54;;;;;;;5.70;2.83;;;19.10;81.40;;;;;;5097297;28;20058;-67
2022/06/06 06:22:24;;;;;;;5.40;2.67;;;19.10;81.40;;;;;;5099574;28;20803;-67
2022/06/06 06:24:53;;;;;;;5.13;2.88;;;19.10;81.50;;;;;;5092580;28;20496;-66
2022/06/06 06:27:22;;;;;;;6.90;3.27;;;19.20;81.20;;;;;;5096173;28;20507;-67
2022/06/06 06:29:49;;;;;;;5.38;2.85;;;19.20;81.10;;;;;;5097160;28;20036;-68
2022/06/06 06:32:49;;;;;;;5.68;2.83;;;19.20;81.00;;;;;;5097045;28;20120;-67
2022/06/06 06:35:26;;;;;;;5.07;2.45;;;19.40;80.80;;;;;;5094246;28;20062;-66
2022/06/06 06:38:12;;;;;;;6.90;2.90;;;19.50;80.40;;;;;;5097516;28;20126;-66
2022/06/06 06:40:49;;;;;;;5.57;2.70;;;19.50;79.70;;;;;;5094702;28;20051;-69
2022/06/06 06:43:32;;;;;;;5.78;2.72;;;19.60;79.10;;;;;;5099152;28;20507;-67
2022/06/06 06:46:03;;;;;;;6.55;3.15;;;19.70;78.80;;;;;;5079366;28;20052;-68
2022/06/06 06:48:36;;;;;;;4.97;2.85;;;19.70;78.10;;;;;;5079929;28;20559;-67
2022/06/06 06:51:11;;;;;;;5.72;2.75;;;19.70;78.00;;;;;;5074737;28;20042;-67
2022/06/06 06:54:00;;;;;;;5.00;2.40;;;19.70;77.70;;;;;;5081165;28;20041;-66
2022/06/06 06:56:53;;;;;;;10.67;3.20;;;19.80;77.20;;;;;;5040515;28;20122;-66
2022/06/06 06:59:30;;;;;;;5.70;2.67;;;19.70;77.00;;;;;;5079152;28;20458;-67
2022/06/06 07:11:08;;;;;;;8.55;3.10;;;20.20;75.50;;;;;;5082040;28;20049;-68
2022/06/06 07:13:48;;;;;;;5.38;2.70;;;20.30;75.20;;;;;;5080789;28;20044;-68
2022/06/06 07:16:21;;;;;;;3.75;2.30;;;20.40;75.10;;;;;;5079489;28;20460;-67
2022/06/06 07:19:03;;;;;;;5.35;2.80;;;20.30;74.50;;;;;;5078002;28;20040;-68
2022/06/06 07:21:32;;;;;;;4.88;2.47;;;20.30;75.00;;;;;;5079419;28;20045;-68
2022/06/06 07:24:04;;;;;;;4.47;2.55;;;20.30;74.60;;;;;;5081169;28;20056;-67
2022/06/06 07:26:37;;;;;;;4.60;2.38;;;20.20;74.80;;;;;;5078653;28;20136;-68
2022/06/06 07:29:06;;;;;;;5.07;2.35;;;20.20;74.50;;;;;;5081110;28;20047;-68
2022/06/06 07:31:57;;;;;;;5.95;2.60;;;20.20;75.00;;;;;;5080270;28;20419;-68
2022/06/06 07:34:50;;;;;;;3.83;2.17;;;20.20;74.60;;;;;;5047382;28;20056;-68
2022/06/06 07:37:40;;;;;;;4.35;2.13;;;20.30;74.40;;;;;;5080104;28;20064;-68
2022/06/06 07:40:19;;;;;;;4.13;2.30;;;20.40;74.30;;;;;;5077783;28;20147;-67
2022/06/06 07:43:16;;;;;;;5.18;2.60;;;20.50;74.20;;;;;;5076968;28;20483;-69
2022/06/06 07:45:47;;;;;;;4.72;2.15;;;20.50;73.70;;;;;;5087256;28;20051;-68
2022/06/06 07:48:29;;;;;;;5.03;2.10;;;20.40;73.80;;;;;;5099319;28;20479;-68
2022/06/06 07:51:04;;;;;;;5.57;2.40;;;20.40;74.10;;;;;;5087070;28;20076;-68
2022/06/06 07:53:38;;;;;;;4.47;2.28;;;20.40;74.20;;;;;;5097189;28;20040;-67
2022/06/06 07:56:15;;;;;;;5.30;2.72;;;20.40;74.60;;;;;;5089989;28;20044;-67
2022/06/06 07:58:51;;;;;;;4.18;2.30;;;20.40;74.80;;;;;;5086571;28;20036;-67
2022/06/06 08:01:27;;;;;;;4.82;2.35;;;20.60;74.80;;;;;;5081231;28;20075;-68
2022/06/06 08:04:06;;;;;;;6.00;2.80;;;20.50;74.90;;;;;;5085640;28;20438;-67
2022/06/06 08:06:39;;;;;;;5.40;2.22;;;20.60;75.00;;;;;;5089793;28;20052;-69
2022/06/06 08:09:31;;;;;;;5.80;3.10;;;20.60;74.50;;;;;;5093904;28;20450;-69
2022/06/06 08:12:23;;;;;;;6.30;2.85;;;20.70;74.40;;;;;;5076315;28;20070;-67
2022/06/06 08:15:07;;;;;;;5.13;2.78;;;20.70;74.30;;;;;;5083036;28;20051;-67
2022/06/06 08:17:51;;;;;;;7.25;2.72;;;20.70;74.50;;;;;;5083678;28;20379;-68
2022/06/06 08:20:27;;;;;;;5.32;2.78;;;20.70;74.10;;;;;;5082198;28;20071;-68
2022/06/06 08:22:59;;;;;;;4.05;2.22;;;20.80;73.60;;;;;;5083766;28;20041;-68
2022/06/06 08:25:25;;;;;;;5.75;3.10;;;20.80;73.50;;;;;;5085638;28;20043;-69
2022/06/06 08:27:56;;;;;;;4.60;2.85;;;20.70;73.50;;;;;;5084309;28;20503;-68
2022/06/06 08:30:24;;;;;;;6.55;3.00;;;20.60;73.70;;;;;;5088496;28;20657;-68
2022/06/06 08:32:51;;;;;;;6.72;2.60;;;20.50;74.00;;;;;;5087898;28;20403;-68
2022/06/06 08:35:18;;;;;;;4.60;2.80;;;20.50;74.30;;;;;;5087935;28;20413;-69
2022/06/06 08:38:15;;;;;;;5.35;2.95;;;20.50;74.60;;;;;;5084111;28;20051;-67
2022/06/06 08:41:28;;;;;;;5.88;2.80;;;20.40;75.10;;;;;;5091051;28;20053;-67
2022/06/06 08:44:03;;;;;;;6.32;2.83;;;20.30;75.40;;;;;;5086841;28;20047;-67
2022/06/06 08:47:02;;;;;;;4.97;2.47;;;20.30;75.50;;;;;;5085337;28;20468;-66
2022/06/06 08:53:04;;;;;;;5.07;2.70;;;20.30;75.30;;;;;;5087550;28;20035;-68
2022/06/06 08:55:46;;;;;;;5.13;2.80;;;20.20;75.10;;;;;;5053735;28;20069;-67
2022/06/06 08:58:43;;;;;;;8.13;3.42;;;20.20;75.30;;;;;;5090475;28;20067;-68
2022/06/06 09:01:28;;;;;;;7.03;3.75;;;20.10;75.70;;;;;;5061193;28;20687;-68
2022/06/06 09:04:41;;;;;;;5.75;2.92;;;20.10;76.40;;;;;;5080972;28;20123;-68
2022/06/06 09:07:47;;;;;;;4.95;2.78;;;20.00;77.30;;;;;;5024232;28;20556;-67
2022/06/06 09:11:00;;;;;;;5.53;3.08;;;20.00;78.10;;;;;;5086120;28;20127;-67
2022/06/06 09:13:59;;;;;;;7.00;3.13;;;20.00;78.20;;;;;;5058272;28;20564;-68
2022/06/06 09:17:16;;;;;;;5.70;3.30;;;20.10;78.10;;;;;;5084740;28;20489;-67
2022/06/06 09:20:21;;;;;;;6.22;2.97;;;20.10;78.20;;;;;;5089966;28;20044;-66
2022/06/06 09:23:31;;;;;;;6.25;3.63;;;20.20;78.20;;;;;;5087319;28;20052;-66
2022/06/06 09:26:02;;;;;;;8.63;3.30;;;20.20;78.60;;;;;;5088622;28;20043;-66
2022/06/06 09:29:23;;;;;;;7.40;3.70;;;20.30;78.70;;;;;;5087468;28;20051;-68
2022/06/06 09:32:23;;;;;;;6.72;3.13;;;20.30;79.10;;;;;;5093448;28;20063;-68
2022/06/06 09:35:20;;;;;;;6.13;2.85;;;20.40;78.20;;;;;;5086689;28;20118;-67
2022/06/06 09:38:20;;;;;;;7.20;3.13;;;20.40;78.10;;;;;;5081118;28;20518;-67
2022/06/06 09:40:59;;;;;;;6.88;3.13;;;20.30;77.80;;;;;;5088854;28;20055;-67
2022/06/06 09:43:55;;;;;;;7.10;3.07;;;20.30;77.80;;;;;;5093856;28;20046;-67
2022/06/06 09:46:59;;;;;;;7.50;2.90;;;20.30;77.50;;;;;;5074753;28;20056;-66
2022/06/06 09:50:06;;;;;;;6.50;3.40;;;20.30;77.50;;;;;;5061085;28;20048;-68
2022/06/06 09:53:07;;;;;;;5.00;2.83;;;20.10;78.30;;;;;;5074019;28;20037;-67
2022/06/06 09:59:20;;;;;;;5.75;2.83;;;20.00;79.70;;;;;;5050322;28;20051;-66
2022/06/06 10:05:48;;;;;;;4.97;2.88;;;19.80;79.90;;;;;;4999735;28;20067;-68
2022/06/06 10:08:45;;;;;;;6.57;2.88;;;19.70;80.50;;;;;;5069358;28;20071;-68
2022/06/06 10:11:50;;;;;;;5.30;2.75;;;19.70;80.90;;;;;;5072709;28;20124;-68
2022/06/06 10:14:59;;;;;;;6.85;3.67;;;19.70;81.30;;;;;;5071562;28;20527;-67
2022/06/06 10:17:32;;;;;;;;;;;19.80;81.50;;;;;;5001628;28;20085;-69
2022/06/06 10:20:11;;;;;;;5.93;2.75;;;19.80;81.10;;;;;;5056393;28;19931;-67
2022/06/06 10:23:10;;;;;;;8.20;3.47;;;19.90;80.60;;;;;;5069030;28;20048;-67
2022/06/06 10:25:57;;;;;;;6.10;3.10;;;19.90;80.60;;;;;;5073571;28;20123;-66
2022/06/06 10:28:55;;;;;;;4.78;2.30;;;20.10;79.80;;;;;;5071892;28;20677;-67
2022/06/06 10:31:44;;;;;;;4.70;2.28;;;20.10;79.60;;;;;;5053796;28;20044;-68
2022/06/06 10:34:40;;;;;;;4.28;1.88;;;20.10;79.30;;;;;;5072627;28;20040;-67
2022/06/06 10:37:40;;;;;;;4.05;1.80;;;20.10;79.10;;;;;;5071094;28;20170;-68
2022/06/06 10:40:31;;;;;;;3.38;1.70;;;20.10;79.20;;;;;;5077102;28;20358;-67
2022/06/06 10:43:28;;;;;;;4.78;2.08;;;20.00;78.90;;;;;;5062982;28;20044;-67
2022/06/06 10:46:00;;;;;;;6.18;2.20;;;20.10;79.30;;;;;;5096860;28;20055;-67
2022/06/06 10:48:54;;;;;;;5.40;1.80;;;20.20;78.80;;;;;;5098054;28;20051;-66
2022/06/06 10:51:55;;;;;;;3.35;1.77;;;20.20;78.20;;;;;;5073974;28;20055;-67
2022/06/06 10:54:57;;;;;;;5.32;2.28;;;20.20;78.00;;;;;;5089411;28;20123;-68
2022/06/06 10:58:14;;;;;;;4.13;2.30;;;20.30;77.90;;;;;;5089390;28;20043;-68
2022/06/06 11:01:01;;;;;;;5.55;2.40;;;20.40;77.40;;;;;;5083901;28;20054;-67
2022/06/06 11:03:58;;;;;;;5.60;3.20;;;20.50;77.10;;;;;;5092949;28;20068;-66
2022/06/06 11:07:00;;;;;;;6.65;3.00;;;20.60;77.20;;;;;;5086400;28;20126;-67
2022/06/06 11:10:00;;;;;;;5.13;2.40;;;20.70;76.90;;;;;;5087319;28;20058;-69
2022/06/06 11:13:00;;;;;;;4.35;1.80;;;20.70;77.40;;;;;;5066456;28;20515;-67
2022/06/06 11:15:38;;;;;;;4.15;1.90;;;20.90;76.60;;;;;;5059103;28;20051;-67
2022/06/06 11:18:39;;;;;;;5.90;2.10;;;21.10;76.20;;;;;;5067891;28;20066;-68
2022/06/06 11:21:50;;;;;;;5.78;2.08;;;21.10;75.40;;;;;;5083780;28;20101;-67
2022/06/06 11:24:34;;;;;;;6.18;3.15;;;21.10;75.50;;;;;;5083906;28;20045;-68
2022/06/06 11:27:34;;;;;;;4.72;2.30;;;21.10;75.40;;;;;;5087715;28;20052;-68
2022/06/06 11:30:23;;;;;;;2.95;1.75;;;21.20;75.70;;;;;;5086726;28;20131;-68
2022/06/06 11:33:13;;;;;;;;;;;21.30;74.50;;;;;;5087168;28;20043;-67
2022/06/06 11:35:57;;;;;;;4.43;2.05;;;21.50;74.90;;;;;;5089892;28;19920;-67
2022/06/06 11:38:54;;;;;;;5.18;2.10;;;21.60;74.70;;;;;;5088259;28;20581;-68
2022/06/06 11:41:49;;;;;;;4.13;2.00;;;21.70;72.20;;;;;;5086363;28;20452;-68
2022/06/06 11:44:34;;;;;;;5.72;2.10;;;22.10;70.80;;;;;;5056100;28;20043;-69
2022/06/06 11:47:35;;;;;;;4.15;1.73;;;22.20;70.10;;;;;;5087120;28;20043;-69
2022/06/06 11:50:38;;;;;;;3.75;1.80;;;22.30;69.50;;;;;;5097823;28;20043;-67
2022/06/06 11:53:48;;;;;;;4.40;2.00;;;22.30;69.10;;;;;;5098929;28;20465;-67
2022/06/06 11:56:19;;;;;;;;;;;22.40;69.00;;;;;;5095823;28;20124;-69
2022/06/06 11:59:34;;;;;;;3.78;2.00;;;22.40;68.50;;;;;;5092392;28;19923;-68
2022/06/06 12:02:45;;;;;;;5.80;2.50;;;22.40;68.60;;;;;;5031406;28;20049;-68
2022/06/06 12:05:41;;;;;;;3.95;1.85;;;22.50;68.10;;;;;;5095299;28;20044;-67
2022/06/06 12:08:28;;;;;;;4.55;1.80;;;22.60;67.30;;;;;;5086478;28;20040;-68
2022/06/06 12:11:18;;;;;;;4.75;2.20;;;22.70;66.60;;;;;;5087280;28;20048;-68
2022/06/06 12:14:06;;;;;;;4.72;2.30;;;22.80;66.50;;;;;;5087433;28;20044;-67
2022/06/06 12:16:41;;;;;;;5.70;2.00;;;22.70;66.60;;;;;;5083621;28;20044;-68
2022/06/06 12:19:32;;;;;;;3.08;1.58;;;22.70;65.80;;;;;;5091250;28;20062;-67
2022/06/06 12:22:42;;;;;;;5.70;1.60;;;22.90;64.70;;;;;;5081244;28;20048;-69
2022/06/06 12:25:41;;;;;;;3.03;1.63;;;22.90;64.00;;;;;;5087224;28;20050;-68
2022/06/06 12:28:47;;;;;;;2.65;1.35;;;22.90;64.20;;;;;;5095898;28;20047;-68
2022/06/06 12:31:32;;;;;;;2.85;1.30;;;22.90;64.00;;;;;;5045611;28;20052;-68
2022/06/06 12:34:08;;;;;;;3.13;1.42;;;23.00;63.70;;;;;;5094943;28;20040;-68
2022/06/06 12:36:43;;;;;;;3.40;1.40;;;23.10;63.40;;;;;;5099928;28;20047;-68
2022/06/06 12:39:18;;;;;;;2.20;1.30;;;23.10;63.10;;;;;;5093956;28;20149;-67
2022/06/06 12:42:00;;;;;;;5.60;1.20;;;23.10;62.60;;;;;;5091906;28;20532;-67
2022/06/06 12:44:54;;;;;;;4.57;1.35;;;23.20;62.40;;;;;;5086292;28;20047;-67
2022/06/06 12:47:38;;;;;;;2.67;1.55;;;23.20;62.10;;;;;;5083448;28;20052;-69
2022/06/06 12:50:20;;;;;;;4.30;1.75;;;23.20;62.00;;;;;;5084467;28;20040;-67
2022/06/06 12:53:14;;;;;;;3.40;1.45;;;23.20;61.60;;;;;;5084601;28;20498;-68
2022/06/06 12:58:42;;;;;;;4.97;1.55;;;23.20;61.50;;;;;;5086771;28;20039;-68
2022/06/06 13:01:39;;;;;;;2.60;1.05;;;23.30;61.20;;;;;;5085011;28;20051;-67
2022/06/06 13:04:32;;;;;;;3.38;1.45;;;23.40;60.70;;;;;;5090689;28;20111;-68
2022/06/06 13:07:11;;;;;;;2.08;1.05;;;23.40;60.40;;;;;;5088032;28;20066;-68
2022/06/06 13:10:04;;;;;;;2.30;1.00;;;23.40;59.80;;;;;;5086775;28;20043;-66
2022/06/06 13:12:51;;;;;;;1.85;0.75;;;23.40;59.60;;;;;;5089035;28;20048;-68
2022/06/06 13:15:26;;;;;;;1.77;0.93;;;23.50;59.60;;;;;;5087651;28;20044;-67
2022/06/06 13:18:06;;;;;;;1.27;0.80;;;23.50;59.40;;;;;;5089588;28;20047;-67
2022/06/06 13:20:41;;;;;;;4.30;1.35;;;23.50;58.80;;;;;;5088628;28;20048;-68
2022/06/06 13:23:29;;;;;;;1.73;0.90;;;23.60;58.50;;;;;;5096863;28;20052;-68
2022/06/06 13:26:11;;;;;;;1.20;0.70;;;23.50;57.90;;;;;;5098105;28;20067;-67
2022/06/06 13:28:49;;;;;;;1.55;0.88;;;23.40;57.90;;;;;;5102363;28;20130;-69
2022/06/06 13:31:28;;;;;;;2.55;0.80;;;23.30;58.00;;;;;;5080634;28;20569;-67
2022/06/06 13:34:17;;;;;;;1.20;0.60;;;23.30;58.20;;;;;;5092695;28;20169;-68
2022/06/06 13:37:05;;;;;;;4.32;0.82;;;23.30;58.00;;;;;;5088313;28;20036;-67
2022/06/06 13:39:53;;;;;;;2.28;0.90;;;23.40;57.70;;;;;;5086790;28;20047;-67
2022/06/06 13:42:39;;;;;;;1.37;0.80;;;23.40;57.20;;;;;;5091761;28;20101;-67
2022/06/06 13:45:19;;;;;;;3.00;0.73;;;23.30;57.10;;;;;;5087986;28;20487;-67
2022/06/06 13:48:11;;;;;;;1.75;0.95;;;23.30;57.00;;;;;;5087886;28;20058;-68
2022/06/06 13:50:49;;;;;;;2.03;0.55;;;23.30;56.70;;;;;;5089314;28;20068;-70
2022/06/06 13:53:58;;;;;;;1.50;0.77;;;23.30;56.90;;;;;;5088294;28;20495;-67
2022/06/06 13:56:47;;;;;;;1.70;0.80;;;23.30;57.10;;;;;;5080904;28;20055;-68
2022/06/06 13:59:34;;;;;;;3.70;1.30;;;23.30;57.00;;;;;;5096085;28;20043;-68
2022/06/06 14:02:19;;;;;;;5.68;1.23;;;23.40;56.90;;;;;;5091438;28;20075;-68
2022/06/06 14:05:02;;;;;;;2.10;1.08;;;23.30;57.00;;;;;;5092742;28;20028;-68
2022/06/06 14:07:52;;;;;;;3.60;1.00;;;23.30;56.80;;;;;;5097999;28;20052;-67
2022/06/06 14:10:21;;;;;;;1.25;0.70;;;23.30;56.80;;;;;;5092619;28;20085;-67
2022/06/06 14:13:06;;;;;;;2.00;0.90;;;23.30;56.70;;;;;;5087940;28;20054;-68
2022/06/06 14:15:40;;;;;;;2.00;0.80;;;23.30;56.50;;;;;;5086728;28;20043;-68
2022/06/06 14:18:10;;;;;;;2.13;1.17;;;23.30;56.40;;;;;;5090048;28;20043;-68
2022/06/06 14:20:46;;;;;;;2.08;0.90;;;23.30;56.20;;;;;;5089495;28;20040;-69
2022/06/06 14:23:21;;;;;;;1.38;0.80;;;23.30;56.30;;;;;;5073021;28;20145;-68
2022/06/06 14:25:51;;;;;;;1.23;0.80;;;23.30;56.30;;;;;;5089358;28;20043;-69
2022/06/06 14:28:20;;;;;;;1.67;0.82;;;23.40;56.50;;;;;;5089071;28;20411;-70
2022/06/06 14:30:47;;;;;;;3.45;0.90;;;23.50;56.20;;;;;;5089335;28;20050;-67